Main page
METAR-TAF:

Airports :

Liège, Belgium

Liège Airport

latitude: 50-39N, longitude: 005-27E, elevation: 186 m

Current weather observation

The report was made 49 minutes ago, at 14:50 UTC
Wind 16 kt from the West
Temperature 23°C
Humidity 50%
Pressure 1017 hPa
Visibility 10 km or more
no clouds below 1500 m and no cumulonimbus

METAR: EBLG 251450Z 26016KT CAVOK 23/12 Q1017 NOSIG

Time: 17:39 (15:39 UTC)

Forecast

The report was made 4 hours and 29 minutes ago, at 11:10 UTC
Forecast valid from 25 at 12 UTC to 26 at 18 UTC
Wind 10 kt from the West/Southwest
Visibility 10 km or more
Scattered clouds at a height of 2500 ft
Probability 40% :
Temporary
from 25 at 15 UTC to 25 at 17 UTC
Visibility: 4000 m
Scattered clouds at a height of 800 ft
Broken clouds at a height of 1200 ft, Towering cumulus.
rain, rain showers
Becoming
from 26 at 18 UTC to 26 at 20 UTC
Wind 5 kt from the Southeast

TAF: EBLG 251110Z 2512/2618 24010KT 9999 SCT025 PROB40 TEMPO 2515/2517 4000 RA SHRA SCT008 BKN012TCU BECMG 2618/2620 14005KT

METAR-TAF

Weather observations and forecasts of more than 4000 airports (METAR and TAF reports).

The available stations are represented by yellow and red dots on the map.

Hover mouse over dot to see the name of the station.

Then click to see weather observations and forecasts.

To change the map : click on the green buttons with a black cross to zoom in, on the green button with a dash to zoom out, or on the green arrows for adjacent maps.


METAR-TAF: